sensor_id;sensor_type;location;lat;lon;timestamp;P1;durP1;ratioP1;P2;durP2;ratioP2
4323;SDS011;2175;51.018;6.994;2023-05-10T00:02:06;16.63;;;12.77;;
4323;SDS011;2175;51.018;6.994;2023-05-10T00:04:31;14.10;;;11.87;;
4323;SDS011;2175;51.018;6.994;2023-05-10T00:06:57;14.23;;;12.17;;
4323;SDS011;2175;51.018;6.994;2023-05-10T00:09:23;16.60;;;12.03;;
4323;SDS011;2175;51.018;6.994;2023-05-10T00:11:48;15.17;;;13.57;;
4323;SDS011;2175;51.018;6.994;2023-05-10T00:14:14;14.70;;;12.40;;
4323;SDS011;2175;51.018;6.994;2023-05-10T00:16:39;18.00;;;13.50;;
4323;SDS011;2175;51.018;6.994;2023-05-10T00:19:05;19.50;;;14.47;;
4323;SDS011;2175;51.018;6.994;2023-05-10T00:21:31;17.20;;;13.37;;
4323;SDS011;2175;51.018;6.994;2023-05-10T00:23:58;16.10;;;13.70;;
4323;SDS011;2175;51.018;6.994;2023-05-10T00:26:24;16.30;;;13.90;;
4323;SDS011;2175;51.018;6.994;2023-05-10T00:28:50;16.90;;;13.83;;
4323;SDS011;2175;51.018;6.994;2023-05-10T00:31:15;17.60;;;14.87;;
4323;SDS011;2175;51.018;6.994;2023-05-10T00:33:41;17.50;;;14.00;;
4323;SDS011;2175;51.018;6.994;2023-05-10T00:36:06;18.27;;;13.40;;
4323;SDS011;2175;51.018;6.994;2023-05-10T00:38:33;16.27;;;14.43;;
4323;SDS011;2175;51.018;6.994;2023-05-10T00:40:58;20.73;;;14.17;;
4323;SDS011;2175;51.018;6.994;2023-05-10T00:43:24;15.67;;;13.30;;
4323;SDS011;2175;51.018;6.994;2023-05-10T00:45:50;16.83;;;13.23;;
4323;SDS011;2175;51.018;6.994;2023-05-10T00:48:15;18.90;;;14.40;;
4323;SDS011;2175;51.018;6.994;2023-05-10T00:50:41;18.33;;;13.73;;
4323;SDS011;2175;51.018;6.994;2023-05-10T00:53:07;15.73;;;13.37;;
4323;SDS011;2175;51.018;6.994;2023-05-10T00:55:33;20.77;;;13.43;;
4323;SDS011;2175;51.018;6.994;2023-05-10T00:57:59;16.00;;;12.43;;
4323;SDS011;2175;51.018;6.994;2023-05-10T01:00:24;17.77;;;14.07;;
4323;SDS011;2175;51.018;6.994;2023-05-10T01:02:50;15.50;;;13.50;;
4323;SDS011;2175;51.018;6.994;2023-05-10T01:05:18;18.10;;;13.23;;
4323;SDS011;2175;51.018;6.994;2023-05-10T01:07:43;16.13;;;12.57;;
4323;SDS011;2175;51.018;6.994;2023-05-10T01:10:09;17.97;;;14.40;;
4323;SDS011;2175;51.018;6.994;2023-05-10T01:12:37;14.33;;;12.83;;
4323;SDS011;2175;51.018;6.994;2023-05-10T01:15:08;17.33;;;14.30;;
4323;SDS011;2175;51.018;6.994;2023-05-10T01:17:36;17.50;;;14.50;;
4323;SDS011;2175;51.018;6.994;2023-05-10T01:20:04;15.93;;;13.80;;
4323;SDS011;2175;51.018;6.994;2023-05-10T01:25:50;18.47;;;13.63;;
4323;SDS011;2175;51.018;6.994;2023-05-10T01:34:35;19.53;;;14.73;;
4323;SDS011;2175;51.018;6.994;2023-05-10T01:37:14;17.70;;;14.67;;
4323;SDS011;2175;51.018;6.994;2023-05-10T01:42:16;23.70;;;16.70;;
4323;SDS011;2175;51.018;6.994;2023-05-10T01:44:53;22.07;;;17.03;;
4323;SDS011;2175;51.018;6.994;2023-05-10T01:47:42;19.90;;;15.17;;
4323;SDS011;2175;51.018;6.994;2023-05-10T01:50:17;19.87;;;15.60;;
4323;SDS011;2175;51.018;6.994;2023-05-10T01:52:47;20.30;;;16.23;;
4323;SDS011;2175;51.018;6.994;2023-05-10T01:55:18;16.07;;;12.97;;
4323;SDS011;2175;51.018;6.994;2023-05-10T01:57:46;15.33;;;12.43;;
4323;SDS011;2175;51.018;6.994;2023-05-10T02:00:15;18.37;;;13.63;;
4323;SDS011;2175;51.018;6.994;2023-05-10T02:05:11;14.70;;;12.43;;
4323;SDS011;2175;51.018;6.994;2023-05-10T02:07:38;21.60;;;15.13;;
4323;SDS011;2175;51.018;6.994;2023-05-10T02:12:45;20.10;;;15.30;;
4323;SDS011;2175;51.018;6.994;2023-05-10T02:15:15;25.90;;;14.17;;
4323;SDS011;2175;51.018;6.994;2023-05-10T02:17:46;17.83;;;13.03;;
4323;SDS011;2175;51.018;6.994;2023-05-10T02:20:12;16.17;;;14.07;;
4323;SDS011;2175;51.018;6.994;2023-05-10T02:22:38;16.43;;;13.57;;
4323;SDS011;2175;51.018;6.994;2023-05-10T02:25:06;21.73;;;17.20;;
4323;SDS011;2175;51.018;6.994;2023-05-10T02:27:34;24.20;;;19.40;;
4323;SDS011;2175;51.018;6.994;2023-05-10T02:30:01;23.07;;;18.20;;
4323;SDS011;2175;51.018;6.994;2023-05-10T02:32:27;15.87;;;13.00;;
4323;SDS011;2175;51.018;6.994;2023-05-10T02:34:54;21.43;;;13.10;;
4323;SDS011;2175;51.018;6.994;2023-05-10T02:37:22;21.93;;;12.80;;
4323;SDS011;2175;51.018;6.994;2023-05-10T02:39:49;19.20;;;13.30;;
4323;SDS011;2175;51.018;6.994;2023-05-10T02:42:17;16.50;;;13.50;;
4323;SDS011;2175;51.018;6.994;2023-05-10T02:44:47;19.03;;;15.60;;
4323;SDS011;2175;51.018;6.994;2023-05-10T02:47:15;18.53;;;14.67;;
4323;SDS011;2175;51.018;6.994;2023-05-10T02:49:41;19.17;;;13.53;;
4323;SDS011;2175;51.018;6.994;2023-05-10T02:52:07;18.20;;;13.93;;
4323;SDS011;2175;51.018;6.994;2023-05-10T02:54:35;19.57;;;14.97;;
4323;SDS011;2175;51.018;6.994;2023-05-10T02:57:08;19.13;;;14.37;;
4323;SDS011;2175;51.018;6.994;2023-05-10T02:59:39;12.70;;;11.27;;
4323;SDS011;2175;51.018;6.994;2023-05-10T03:02:07;18.17;;;15.07;;
4323;SDS011;2175;51.018;6.994;2023-05-10T03:04:35;18.53;;;11.93;;
4323;SDS011;2175;51.018;6.994;2023-05-10T03:07:01;16.80;;;12.50;;
4323;SDS011;2175;51.018;6.994;2023-05-10T03:09:26;13.30;;;11.90;;
4323;SDS011;2175;51.018;6.994;2023-05-10T03:12:38;16.53;;;14.93;;
4323;SDS011;2175;51.018;6.994;2023-05-10T03:17:47;20.20;;;16.90;;
4323;SDS011;2175;51.018;6.994;2023-05-10T03:20:22;18.87;;;16.20;;
4323;SDS011;2175;51.018;6.994;2023-05-10T03:22:52;21.33;;;15.63;;
4323;SDS011;2175;51.018;6.994;2023-05-10T03:25:20;17.20;;;14.80;;
4323;SDS011;2175;51.018;6.994;2023-05-10T03:27:47;24.87;;;22.03;;
4323;SDS011;2175;51.018;6.994;2023-05-10T03:30:14;28.53;;;24.67;;
4323;SDS011;2175;51.018;6.994;2023-05-10T03:32:41;28.27;;;25.07;;
4323;SDS011;2175;51.018;6.994;2023-05-10T03:35:10;23.53;;;19.90;;
4323;SDS011;2175;51.018;6.994;2023-05-10T03:37:37;26.63;;;23.73;;
4323;SDS011;2175;51.018;6.994;2023-05-10T03:40:03;29.33;;;24.37;;
4323;SDS011;2175;51.018;6.994;2023-05-10T03:42:29;29.17;;;22.63;;
4323;SDS011;2175;51.018;6.994;2023-05-10T03:44:54;26.93;;;22.93;;
4323;SDS011;2175;51.018;6.994;2023-05-10T03:47:20;25.27;;;20.50;;
4323;SDS011;2175;51.018;6.994;2023-05-10T03:49:46;21.50;;;15.70;;
4323;SDS011;2175;51.018;6.994;2023-05-10T03:52:16;14.53;;;12.40;;
4323;SDS011;2175;51.018;6.994;2023-05-10T03:54:43;17.53;;;12.97;;
4323;SDS011;2175;51.018;6.994;2023-05-10T03:57:08;15.97;;;12.53;;
4323;SDS011;2175;51.018;6.994;2023-05-10T03:59:34;16.63;;;12.23;;
4323;SDS011;2175;51.018;6.994;2023-05-10T04:02:00;16.23;;;11.23;;
4323;SDS011;2175;51.018;6.994;2023-05-10T04:04:25;14.20;;;11.53;;
4323;SDS011;2175;51.018;6.994;2023-05-10T04:06:51;21.17;;;11.93;;
4323;SDS011;2175;51.018;6.994;2023-05-10T04:09:17;18.40;;;13.23;;
4323;SDS011;2175;51.018;6.994;2023-05-10T04:11:42;20.93;;;13.40;;
4323;SDS011;2175;51.018;6.994;2023-05-10T04:14:08;17.70;;;12.87;;
4323;SDS011;2175;51.018;6.994;2023-05-10T04:16:34;19.83;;;13.30;;
4323;SDS011;2175;51.018;6.994;2023-05-10T04:18:59;17.00;;;13.00;;
4323;SDS011;2175;51.018;6.994;2023-05-10T04:21:25;19.00;;;13.37;;
4323;SDS011;2175;51.018;6.994;2023-05-10T04:23:51;19.07;;;13.67;;
4323;SDS011;2175;51.018;6.994;2023-05-10T04:26:16;15.77;;;12.43;;
4323;SDS011;2175;51.018;6.994;2023-05-10T04:28:42;19.00;;;14.80;;
4323;SDS011;2175;51.018;6.994;2023-05-10T04:31:09;21.50;;;15.30;;
4323;SDS011;2175;51.018;6.994;2023-05-10T04:33:35;24.43;;;15.83;;
4323;SDS011;2175;51.018;6.994;2023-05-10T04:36:01;23.53;;;18.33;;
4323;SDS011;2175;51.018;6.994;2023-05-10T04:38:29;25.70;;;19.17;;
4323;SDS011;2175;51.018;6.994;2023-05-10T04:41:05;28.90;;;20.07;;
4323;SDS011;2175;51.018;6.994;2023-05-10T04:43:35;27.97;;;20.90;;
4323;SDS011;2175;51.018;6.994;2023-05-10T04:48:37;41.67;;;34.50;;
4323;SDS011;2175;51.018;6.994;2023-05-10T04:51:02;38.63;;;27.23;;
4323;SDS011;2175;51.018;6.994;2023-05-10T04:53:28;36.57;;;27.17;;
4323;SDS011;2175;51.018;6.994;2023-05-10T04:55:54;31.77;;;22.63;;
4323;SDS011;2175;51.018;6.994;2023-05-10T04:58:20;33.43;;;22.73;;
4323;SDS011;2175;51.018;6.994;2023-05-10T05:00:46;34.87;;;23.80;;
4323;SDS011;2175;51.018;6.994;2023-05-10T05:03:11;29.00;;;22.53;;
4323;SDS011;2175;51.018;6.994;2023-05-10T05:05:37;31.33;;;21.63;;
4323;SDS011;2175;51.018;6.994;2023-05-10T05:08:03;28.33;;;20.50;;
4323;SDS011;2175;51.018;6.994;2023-05-10T05:10:28;34.30;;;21.10;;
4323;SDS011;2175;51.018;6.994;2023-05-10T05:12:54;33.40;;;21.43;;
4323;SDS011;2175;51.018;6.994;2023-05-10T05:15:20;30.90;;;21.90;;
4323;SDS011;2175;51.018;6.994;2023-05-10T05:17:46;30.83;;;20.03;;
4323;SDS011;2175;51.018;6.994;2023-05-10T05:20:11;30.73;;;20.80;;
4323;SDS011;2175;51.018;6.994;2023-05-10T05:22:37;28.47;;;20.57;;
4323;SDS011;2175;51.018;6.994;2023-05-10T05:25:03;27.50;;;20.90;;
4323;SDS011;2175;51.018;6.994;2023-05-10T05:27:30;31.17;;;21.90;;
4323;SDS011;2175;51.018;6.994;2023-05-10T05:29:56;33.63;;;20.83;;
4323;SDS011;2175;51.018;6.994;2023-05-10T05:32:23;31.63;;;20.30;;
4323;SDS011;2175;51.018;6.994;2023-05-10T05:34:49;25.20;;;20.47;;
4323;SDS011;2175;51.018;6.994;2023-05-10T05:37:16;32.83;;;20.50;;
4323;SDS011;2175;51.018;6.994;2023-05-10T05:39:43;27.10;;;19.73;;
4323;SDS011;2175;51.018;6.994;2023-05-10T05:42:09;28.90;;;18.53;;
4323;SDS011;2175;51.018;6.994;2023-05-10T05:44:35;29.30;;;21.67;;
4323;SDS011;2175;51.018;6.994;2023-05-10T05:47:01;33.50;;;21.20;;
4323;SDS011;2175;51.018;6.994;2023-05-10T05:49:26;30.27;;;20.80;;
4323;SDS011;2175;51.018;6.994;2023-05-10T05:51:52;28.73;;;20.53;;
4323;SDS011;2175;51.018;6.994;2023-05-10T05:54:18;34.90;;;23.23;;
4323;SDS011;2175;51.018;6.994;2023-05-10T05:56:43;32.67;;;21.77;;
4323;SDS011;2175;51.018;6.994;2023-05-10T05:59:09;35.80;;;22.97;;
4323;SDS011;2175;51.018;6.994;2023-05-10T06:01:35;45.53;;;21.97;;
4323;SDS011;2175;51.018;6.994;2023-05-10T06:04:01;28.67;;;19.70;;
4323;SDS011;2175;51.018;6.994;2023-05-10T06:06:26;34.23;;;20.73;;
4323;SDS011;2175;51.018;6.994;2023-05-10T06:08:52;30.20;;;21.50;;
4323;SDS011;2175;51.018;6.994;2023-05-10T06:11:18;36.30;;;24.30;;
4323;SDS011;2175;51.018;6.994;2023-05-10T06:13:45;35.67;;;23.83;;
4323;SDS011;2175;51.018;6.994;2023-05-10T06:16:11;35.83;;;22.70;;
4323;SDS011;2175;51.018;6.994;2023-05-10T06:18:37;29.27;;;20.67;;
4323;SDS011;2175;51.018;6.994;2023-05-10T06:21:03;30.67;;;21.23;;
4323;SDS011;2175;51.018;6.994;2023-05-10T06:23:28;31.50;;;19.40;;
4323;SDS011;2175;51.018;6.994;2023-05-10T06:25:54;33.17;;;18.97;;
4323;SDS011;2175;51.018;6.994;2023-05-10T06:28:20;27.97;;;18.07;;
4323;SDS011;2175;51.018;6.994;2023-05-10T06:30:46;30.90;;;18.30;;
4323;SDS011;2175;51.018;6.994;2023-05-10T06:33:11;29.07;;;20.33;;
4323;SDS011;2175;51.018;6.994;2023-05-10T06:35:37;28.43;;;19.43;;
4323;SDS011;2175;51.018;6.994;2023-05-10T06:38:03;32.33;;;19.93;;
4323;SDS011;2175;51.018;6.994;2023-05-10T06:40:29;28.40;;;20.47;;
4323;SDS011;2175;51.018;6.994;2023-05-10T06:42:55;28.70;;;19.30;;
4323;SDS011;2175;51.018;6.994;2023-05-10T06:45:20;32.80;;;19.43;;
4323;SDS011;2175;51.018;6.994;2023-05-10T06:47:46;35.17;;;20.27;;
4323;SDS011;2175;51.018;6.994;2023-05-10T06:50:11;31.50;;;20.90;;
4323;SDS011;2175;51.018;6.994;2023-05-10T06:52:37;30.90;;;20.60;;
4323;SDS011;2175;51.018;6.994;2023-05-10T06:55:03;32.40;;;20.13;;
4323;SDS011;2175;51.018;6.994;2023-05-10T06:57:30;32.30;;;21.33;;
4323;SDS011;2175;51.018;6.994;2023-05-10T06:59:55;35.43;;;23.27;;
4323;SDS011;2175;51.018;6.994;2023-05-10T07:02:21;35.83;;;22.30;;
4323;SDS011;2175;51.018;6.994;2023-05-10T07:04:47;35.60;;;21.90;;
4323;SDS011;2175;51.018;6.994;2023-05-10T07:07:13;29.40;;;21.93;;
4323;SDS011;2175;51.018;6.994;2023-05-10T07:09:39;37.47;;;23.73;;
4323;SDS011;2175;51.018;6.994;2023-05-10T07:12:05;37.70;;;23.43;;
4323;SDS011;2175;51.018;6.994;2023-05-10T07:14:31;34.33;;;22.93;;
4323;SDS011;2175;51.018;6.994;2023-05-10T07:16:56;33.50;;;21.83;;
4323;SDS011;2175;51.018;6.994;2023-05-10T07:19:22;35.50;;;22.70;;
4323;SDS011;2175;51.018;6.994;2023-05-10T07:21:48;33.40;;;20.83;;
4323;SDS011;2175;51.018;6.994;2023-05-10T07:24:13;34.03;;;20.53;;
4323;SDS011;2175;51.018;6.994;2023-05-10T07:26:39;33.63;;;21.00;;
4323;SDS011;2175;51.018;6.994;2023-05-10T07:29:05;33.63;;;19.67;;
4323;SDS011;2175;51.018;6.994;2023-05-10T07:31:30;33.30;;;20.13;;
4323;SDS011;2175;51.018;6.994;2023-05-10T07:33:56;29.73;;;20.20;;
4323;SDS011;2175;51.018;6.994;2023-05-10T07:36:21;33.10;;;20.10;;
4323;SDS011;2175;51.018;6.994;2023-05-10T07:38:47;29.73;;;20.43;;
4323;SDS011;2175;51.018;6.994;2023-05-10T07:41:14;30.00;;;21.00;;
4323;SDS011;2175;51.018;6.994;2023-05-10T07:43:39;30.23;;;20.40;;
4323;SDS011;2175;51.018;6.994;2023-05-10T07:46:05;33.13;;;21.13;;
4323;SDS011;2175;51.018;6.994;2023-05-10T07:48:31;27.77;;;21.87;;
4323;SDS011;2175;51.018;6.994;2023-05-10T07:50:56;36.30;;;22.33;;
4323;SDS011;2175;51.018;6.994;2023-05-10T07:53:22;32.53;;;20.77;;
4323;SDS011;2175;51.018;6.994;2023-05-10T07:55:51;26.73;;;19.77;;
4323;SDS011;2175;51.018;6.994;2023-05-10T07:58:19;31.70;;;20.30;;
4323;SDS011;2175;51.018;6.994;2023-05-10T08:00:45;30.73;;;19.70;;
4323;SDS011;2175;51.018;6.994;2023-05-10T08:03:10;28.90;;;19.23;;
4323;SDS011;2175;51.018;6.994;2023-05-10T08:05:36;25.50;;;18.20;;
4323;SDS011;2175;51.018;6.994;2023-05-10T08:08:02;27.50;;;19.20;;
4323;SDS011;2175;51.018;6.994;2023-05-10T08:10:27;30.60;;;18.63;;
4323;SDS011;2175;51.018;6.994;2023-05-10T08:12:53;27.50;;;19.60;;
4323;SDS011;2175;51.018;6.994;2023-05-10T08:15:19;25.07;;;17.70;;
4323;SDS011;2175;51.018;6.994;2023-05-10T08:17:45;26.57;;;18.70;;
4323;SDS011;2175;51.018;6.994;2023-05-10T08:20:10;24.37;;;17.40;;
4323;SDS011;2175;51.018;6.994;2023-05-10T08:22:37;24.17;;;17.70;;
4323;SDS011;2175;51.018;6.994;2023-05-10T08:25:03;29.47;;;16.40;;
4323;SDS011;2175;51.018;6.994;2023-05-10T08:27:29;21.87;;;15.20;;
4323;SDS011;2175;51.018;6.994;2023-05-10T08:29:54;23.00;;;16.23;;
4323;SDS011;2175;51.018;6.994;2023-05-10T08:32:20;21.70;;;15.00;;
4323;SDS011;2175;51.018;6.994;2023-05-10T08:34:46;20.50;;;14.30;;
4323;SDS011;2175;51.018;6.994;2023-05-10T08:37:11;21.07;;;13.63;;
4323;SDS011;2175;51.018;6.994;2023-05-10T08:39:38;20.07;;;13.20;;
4323;SDS011;2175;51.018;6.994;2023-05-10T08:42:04;21.83;;;13.60;;
4323;SDS011;2175;51.018;6.994;2023-05-10T08:44:34;22.87;;;14.57;;
4323;SDS011;2175;51.018;6.994;2023-05-10T08:47:02;22.43;;;14.47;;
4323;SDS011;2175;51.018;6.994;2023-05-10T08:49:31;18.43;;;13.30;;
4323;SDS011;2175;51.018;6.994;2023-05-10T08:51:58;23.63;;;16.80;;
4323;SDS011;2175;51.018;6.994;2023-05-10T08:54:28;30.00;;;19.30;;
4323;SDS011;2175;51.018;6.994;2023-05-10T08:56:54;30.63;;;20.87;;
4323;SDS011;2175;51.018;6.994;2023-05-10T08:59:21;35.37;;;22.20;;
4323;SDS011;2175;51.018;6.994;2023-05-10T09:01:47;29.70;;;20.53;;
4323;SDS011;2175;51.018;6.994;2023-05-10T09:04:14;30.37;;;20.50;;
4323;SDS011;2175;51.018;6.994;2023-05-10T09:06:40;32.47;;;22.10;;
4323;SDS011;2175;51.018;6.994;2023-05-10T09:09:06;32.00;;;23.50;;
4323;SDS011;2175;51.018;6.994;2023-05-10T09:11:32;34.47;;;22.33;;
4323;SDS011;2175;51.018;6.994;2023-05-10T09:13:58;33.20;;;22.80;;
4323;SDS011;2175;51.018;6.994;2023-05-10T09:16:23;36.73;;;23.60;;
4323;SDS011;2175;51.018;6.994;2023-05-10T09:18:49;31.73;;;23.20;;
4323;SDS011;2175;51.018;6.994;2023-05-10T09:21:15;34.30;;;23.93;;
4323;SDS011;2175;51.018;6.994;2023-05-10T09:23:47;39.03;;;24.30;;
4323;SDS011;2175;51.018;6.994;2023-05-10T09:26:14;38.17;;;25.10;;
4323;SDS011;2175;51.018;6.994;2023-05-10T09:28:54;37.43;;;24.07;;
4323;SDS011;2175;51.018;6.994;2023-05-10T09:31:21;35.63;;;21.20;;
4323;SDS011;2175;51.018;6.994;2023-05-10T09:33:48;32.43;;;20.60;;
4323;SDS011;2175;51.018;6.994;2023-05-10T09:36:14;34.90;;;21.53;;
4323;SDS011;2175;51.018;6.994;2023-05-10T09:38:47;38.50;;;24.50;;
4323;SDS011;2175;51.018;6.994;2023-05-10T09:41:18;44.13;;;28.73;;
4323;SDS011;2175;51.018;6.994;2023-05-10T09:43:48;43.57;;;26.70;;
4323;SDS011;2175;51.018;6.994;2023-05-10T09:46:15;39.07;;;25.10;;
4323;SDS011;2175;51.018;6.994;2023-05-10T09:48:42;37.60;;;24.70;;
4323;SDS011;2175;51.018;6.994;2023-05-10T09:51:19;45.23;;;27.30;;
4323;SDS011;2175;51.018;6.994;2023-05-10T11:04:21;29.37;;;20.90;;
4323;SDS011;2175;51.018;6.994;2023-05-10T11:06:46;29.27;;;18.20;;
4323;SDS011;2175;51.018;6.994;2023-05-10T11:09:12;27.40;;;18.27;;
4323;SDS011;2175;51.018;6.994;2023-05-10T11:11:51;28.43;;;18.93;;
4323;SDS011;2175;51.018;6.994;2023-05-10T11:14:20;28.10;;;16.87;;
4323;SDS011;2175;51.018;6.994;2023-05-10T11:16:47;21.90;;;17.30;;
4323;SDS011;2175;51.018;6.994;2023-05-10T11:19:13;24.17;;;18.40;;
4323;SDS011;2175;51.018;6.994;2023-05-10T11:21:50;24.00;;;16.83;;
4323;SDS011;2175;51.018;6.994;2023-05-10T11:24:37;24.80;;;16.50;;
4323;SDS011;2175;51.018;6.994;2023-05-10T11:27:03;23.90;;;16.37;;
4323;SDS011;2175;51.018;6.994;2023-05-10T11:29:29;23.47;;;16.40;;
4323;SDS011;2175;51.018;6.994;2023-05-10T11:31:56;30.03;;;15.90;;
4323;SDS011;2175;51.018;6.994;2023-05-10T11:34:27;27.77;;;18.00;;
4323;SDS011;2175;51.018;6.994;2023-05-10T11:37:03;20.43;;;13.07;;
4323;SDS011;2175;51.018;6.994;2023-05-10T11:39:31;15.83;;;10.90;;
4323;SDS011;2175;51.018;6.994;2023-05-10T11:41:58;14.00;;;10.60;;
4323;SDS011;2175;51.018;6.994;2023-05-10T11:44:31;18.00;;;11.80;;
4323;SDS011;2175;51.018;6.994;2023-05-10T11:46:58;13.60;;;11.87;;
4323;SDS011;2175;51.018;6.994;2023-05-10T11:49:25;16.43;;;11.50;;
4323;SDS011;2175;51.018;6.994;2023-05-10T11:51:51;16.20;;;12.53;;
4323;SDS011;2175;51.018;6.994;2023-05-10T11:54:17;18.50;;;13.00;;
4323;SDS011;2175;51.018;6.994;2023-05-10T11:56:42;24.40;;;13.93;;
4323;SDS011;2175;51.018;6.994;2023-05-10T11:59:08;21.00;;;12.53;;
4323;SDS011;2175;51.018;6.994;2023-05-10T12:01:34;14.80;;;10.20;;
4323;SDS011;2175;51.018;6.994;2023-05-10T12:04:00;11.50;;;8.60;;
4323;SDS011;2175;51.018;6.994;2023-05-10T12:06:26;9.33;;;7.20;;
4323;SDS011;2175;51.018;6.994;2023-05-10T12:08:54;18.40;;;7.60;;
4323;SDS011;2175;51.018;6.994;2023-05-10T12:11:20;9.77;;;6.70;;
4323;SDS011;2175;51.018;6.994;2023-05-10T12:13:50;6.77;;;5.30;;
4323;SDS011;2175;51.018;6.994;2023-05-10T12:16:17;9.30;;;7.20;;
4323;SDS011;2175;51.018;6.994;2023-05-10T12:18:51;10.60;;;7.90;;
4323;SDS011;2175;51.018;6.994;2023-05-10T12:21:18;12.00;;;7.67;;
4323;SDS011;2175;51.018;6.994;2023-05-10T12:23:46;9.93;;;8.53;;
4323;SDS011;2175;51.018;6.994;2023-05-10T12:26:13;10.73;;;6.40;;
4323;SDS011;2175;51.018;6.994;2023-05-10T12:28:39;10.47;;;5.73;;
4323;SDS011;2175;51.018;6.994;2023-05-10T12:31:05;7.70;;;5.20;;
4323;SDS011;2175;51.018;6.994;2023-05-10T12:36:06;6.43;;;4.87;;
4323;SDS011;2175;51.018;6.994;2023-05-10T12:38:33;6.80;;;4.53;;
4323;SDS011;2175;51.018;6.994;2023-05-10T12:41:02;7.90;;;4.30;;
4323;SDS011;2175;51.018;6.994;2023-05-10T12:43:29;4.57;;;3.43;;
4323;SDS011;2175;51.018;6.994;2023-05-10T12:45:55;4.77;;;3.30;;
4323;SDS011;2175;51.018;6.994;2023-05-10T12:48:21;7.80;;;3.33;;
4323;SDS011;2175;51.018;6.994;2023-05-10T12:50:47;4.30;;;3.33;;
4323;SDS011;2175;51.018;6.994;2023-05-10T12:53:16;5.90;;;3.43;;
4323;SDS011;2175;51.018;6.994;2023-05-10T12:55:42;8.07;;;3.80;;
4323;SDS011;2175;51.018;6.994;2023-05-10T12:58:08;5.20;;;3.10;;
4323;SDS011;2175;51.018;6.994;2023-05-10T13:00:34;4.37;;;3.50;;
4323;SDS011;2175;51.018;6.994;2023-05-10T13:03:00;9.20;;;3.90;;
4323;SDS011;2175;51.018;6.994;2023-05-10T13:05:25;10.83;;;3.90;;
4323;SDS011;2175;51.018;6.994;2023-05-10T13:07:51;7.30;;;4.00;;
4323;SDS011;2175;51.018;6.994;2023-05-10T13:10:17;5.67;;;3.90;;
4323;SDS011;2175;51.018;6.994;2023-05-10T13:12:42;6.33;;;4.83;;
4323;SDS011;2175;51.018;6.994;2023-05-10T13:15:08;6.73;;;5.20;;
4323;SDS011;2175;51.018;6.994;2023-05-10T13:17:34;6.97;;;5.00;;
4323;SDS011;2175;51.018;6.994;2023-05-10T13:19:59;6.27;;;4.60;;
4323;SDS011;2175;51.018;6.994;2023-05-10T13:22:25;8.23;;;4.10;;
4323;SDS011;2175;51.018;6.994;2023-05-10T13:24:51;22.27;;;3.93;;
4323;SDS011;2175;51.018;6.994;2023-05-10T13:27:16;4.50;;;3.13;;
4323;SDS011;2175;51.018;6.994;2023-05-10T13:29:42;4.40;;;3.40;;
4323;SDS011;2175;51.018;6.994;2023-05-10T13:32:08;5.50;;;3.50;;
4323;SDS011;2175;51.018;6.994;2023-05-10T13:34:33;4.47;;;3.70;;
4323;SDS011;2175;51.018;6.994;2023-05-10T13:37:00;4.50;;;3.30;;
4323;SDS011;2175;51.018;6.994;2023-05-10T13:39:26;5.30;;;3.07;;
4323;SDS011;2175;51.018;6.994;2023-05-10T13:41:52;6.43;;;3.93;;
4323;SDS011;2175;51.018;6.994;2023-05-10T13:44:17;4.83;;;3.57;;
4323;SDS011;2175;51.018;6.994;2023-05-10T13:46:45;5.60;;;4.30;;
4323;SDS011;2175;51.018;6.994;2023-05-10T13:49:10;5.50;;;3.70;;
4323;SDS011;2175;51.018;6.994;2023-05-10T13:51:36;6.50;;;3.30;;
4323;SDS011;2175;51.018;6.994;2023-05-10T13:54:02;5.73;;;3.70;;
4323;SDS011;2175;51.018;6.994;2023-05-10T13:56:28;8.33;;;3.40;;
4323;SDS011;2175;51.018;6.994;2023-05-10T13:58:53;4.43;;;3.47;;
4323;SDS011;2175;51.018;6.994;2023-05-10T14:01:21;5.03;;;3.40;;
4323;SDS011;2175;51.018;6.994;2023-05-10T14:03:48;4.80;;;3.83;;
4323;SDS011;2175;51.018;6.994;2023-05-10T14:06:13;4.50;;;3.50;;
4323;SDS011;2175;51.018;6.994;2023-05-10T14:08:39;4.73;;;3.50;;
4323;SDS011;2175;51.018;6.994;2023-05-10T14:11:05;3.73;;;2.80;;
4323;SDS011;2175;51.018;6.994;2023-05-10T14:13:30;5.77;;;2.90;;
4323;SDS011;2175;51.018;6.994;2023-05-10T14:15:56;3.83;;;2.83;;
4323;SDS011;2175;51.018;6.994;2023-05-10T14:18:22;4.00;;;3.17;;
4323;SDS011;2175;51.018;6.994;2023-05-10T14:20:47;13.43;;;3.97;;
4323;SDS011;2175;51.018;6.994;2023-05-10T14:23:13;4.50;;;3.90;;
4323;SDS011;2175;51.018;6.994;2023-05-10T14:25:40;4.37;;;3.30;;
4323;SDS011;2175;51.018;6.994;2023-05-10T14:28:05;3.00;;;2.70;;
4323;SDS011;2175;51.018;6.994;2023-05-10T14:30:31;4.53;;;2.90;;
4323;SDS011;2175;51.018;6.994;2023-05-10T14:32:59;3.60;;;2.53;;
4323;SDS011;2175;51.018;6.994;2023-05-10T14:35:26;4.93;;;2.43;;
4323;SDS011;2175;51.018;6.994;2023-05-10T14:37:52;4.87;;;2.53;;
4323;SDS011;2175;51.018;6.994;2023-05-10T14:40:18;3.60;;;2.90;;
4323;SDS011;2175;51.018;6.994;2023-05-10T14:42:44;5.73;;;3.70;;
4323;SDS011;2175;51.018;6.994;2023-05-10T14:45:11;9.57;;;6.00;;
4323;SDS011;2175;51.018;6.994;2023-05-10T14:47:37;12.97;;;7.13;;
4323;SDS011;2175;51.018;6.994;2023-05-10T14:50:02;10.67;;;8.10;;
4323;SDS011;2175;51.018;6.994;2023-05-10T14:52:29;11.20;;;9.67;;
4323;SDS011;2175;51.018;6.994;2023-05-10T14:54:54;17.37;;;10.77;;
4323;SDS011;2175;51.018;6.994;2023-05-10T14:57:20;14.53;;;10.17;;
4323;SDS011;2175;51.018;6.994;2023-05-10T14:59:45;16.90;;;9.90;;
4323;SDS011;2175;51.018;6.994;2023-05-10T15:02:11;9.63;;;8.57;;
4323;SDS011;2175;51.018;6.994;2023-05-10T15:04:37;10.33;;;8.20;;
4323;SDS011;2175;51.018;6.994;2023-05-10T15:07:03;12.27;;;8.60;;
4323;SDS011;2175;51.018;6.994;2023-05-10T15:09:29;12.57;;;8.27;;
4323;SDS011;2175;51.018;6.994;2023-05-10T15:11:55;12.43;;;8.53;;
4323;SDS011;2175;51.018;6.994;2023-05-10T15:14:21;14.13;;;8.50;;
4323;SDS011;2175;51.018;6.994;2023-05-10T15:16:47;11.10;;;8.03;;
4323;SDS011;2175;51.018;6.994;2023-05-10T15:19:13;11.67;;;8.23;;
4323;SDS011;2175;51.018;6.994;2023-05-10T15:21:38;12.40;;;8.30;;
4323;SDS011;2175;51.018;6.994;2023-05-10T15:24:07;10.50;;;7.80;;
4323;SDS011;2175;51.018;6.994;2023-05-10T15:26:33;16.90;;;10.80;;
4323;SDS011;2175;51.018;6.994;2023-05-10T15:28:59;14.77;;;10.20;;
4323;SDS011;2175;51.018;6.994;2023-05-10T15:31:25;13.33;;;10.20;;
4323;SDS011;2175;51.018;6.994;2023-05-10T15:33:52;12.07;;;8.70;;
4323;SDS011;2175;51.018;6.994;2023-05-10T15:36:22;11.87;;;9.40;;
4323;SDS011;2175;51.018;6.994;2023-05-10T15:38:47;12.13;;;8.87;;
4323;SDS011;2175;51.018;6.994;2023-05-10T15:41:13;15.70;;;9.60;;
4323;SDS011;2175;51.018;6.994;2023-05-10T15:43:39;10.23;;;8.33;;
4323;SDS011;2175;51.018;6.994;2023-05-10T15:46:04;13.80;;;8.63;;
4323;SDS011;2175;51.018;6.994;2023-05-10T15:48:31;12.83;;;8.70;;
4323;SDS011;2175;51.018;6.994;2023-05-10T15:50:57;13.13;;;7.77;;
4323;SDS011;2175;51.018;6.994;2023-05-10T15:53:23;11.10;;;8.30;;
4323;SDS011;2175;51.018;6.994;2023-05-10T15:55:49;12.03;;;8.70;;
4323;SDS011;2175;51.018;6.994;2023-05-10T15:58:14;15.53;;;8.60;;
4323;SDS011;2175;51.018;6.994;2023-05-10T16:00:40;10.00;;;6.60;;
4323;SDS011;2175;51.018;6.994;2023-05-10T16:03:07;9.93;;;6.10;;
4323;SDS011;2175;51.018;6.994;2023-05-10T16:05:33;10.40;;;5.20;;
4323;SDS011;2175;51.018;6.994;2023-05-10T16:08:02;7.50;;;5.07;;
4323;SDS011;2175;51.018;6.994;2023-05-10T16:10:30;10.00;;;5.73;;
4323;SDS011;2175;51.018;6.994;2023-05-10T16:12:57;8.50;;;5.60;;
4323;SDS011;2175;51.018;6.994;2023-05-10T16:15:23;8.87;;;5.90;;
4323;SDS011;2175;51.018;6.994;2023-05-10T16:17:48;7.50;;;5.53;;
4323;SDS011;2175;51.018;6.994;2023-05-10T16:20:14;10.87;;;5.67;;
4323;SDS011;2175;51.018;6.994;2023-05-10T16:22:40;7.23;;;5.20;;
4323;SDS011;2175;51.018;6.994;2023-05-10T16:25:06;8.63;;;4.83;;
4323;SDS011;2175;51.018;6.994;2023-05-10T16:27:32;10.33;;;5.80;;